Time;durP1;ratioP1;P1;durP2;ratioP2;P2;SDS_P1;SDS_P2;PMS_P1;PMS_P2;Temp;Humidity;BMP_temperature;BMP_pressure;BME280_temperature;BME280_humidity;BME280_pressure;Samples;Min_cycle;Max_cycle;Signal;HPM_P1;HPM_P2
2023/06/03 00:01:58;;;;;;;4.88;0.75;;;13.50;99.90;;;;;;4906726;29;20055;-34
2023/06/03 00:04:23;;;;;;;2.42;0.60;;;13.50;99.90;;;;;;4906041;29;20048;-34
2023/06/03 00:06:49;;;;;;;2.95;0.80;;;13.50;99.90;;;;;;4907685;29;20177;-34
2023/06/03 00:09:15;;;;;;;2.53;0.55;;;13.50;99.90;;;;;;4907545;29;20072;-34
2023/06/03 00:11:42;;;;;;;1.20;0.40;;;13.40;99.90;;;;;;4893854;29;20509;-34
2023/06/03 00:14:08;;;;;;;2.50;0.50;;;13.40;99.90;;;;;;4910916;29;20051;-34
2023/06/03 00:16:34;;;;;;;2.35;0.50;;;13.40;99.90;;;;;;4911828;29;20407;-34
2023/06/03 00:18:59;;;;;;;1.70;0.77;;;13.40;99.90;;;;;;4907798;29;20421;-34
2023/06/03 00:21:25;;;;;;;1.40;0.40;;;13.30;99.90;;;;;;4909646;29;20048;-34
2023/06/03 00:23:51;;;;;;;1.65;0.60;;;13.30;99.90;;;;;;4905648;29;20542;-34
2023/06/03 00:26:17;;;;;;;1.33;0.80;;;13.30;99.90;;;;;;4906868;29;20052;-34
2023/06/03 00:28:42;;;;;;;1.40;0.60;;;13.30;99.90;;;;;;4910375;29;20048;-34
2023/06/03 00:31:08;;;;;;;2.05;0.60;;;13.30;99.90;;;;;;4908710;29;20099;-34
2023/06/03 00:33:34;;;;;;;1.67;0.57;;;13.20;99.90;;;;;;4905688;29;21782;-34
2023/06/03 00:35:59;;;;;;;1.52;0.50;;;13.20;99.90;;;;;;4911037;29;20630;-34
2023/06/03 00:38:25;;;;;;;2.63;0.70;;;13.20;99.90;;;;;;4908825;29;20070;-34
2023/06/03 00:40:50;;;;;;;2.88;0.63;;;13.10;99.90;;;;;;4908793;29;20059;-34
2023/06/03 00:43:16;;;;;;;1.63;0.50;;;13.10;99.90;;;;;;4903667;29;20426;-34
2023/06/03 00:45:42;;;;;;;4.50;0.50;;;13.10;99.90;;;;;;4907824;29;20059;-34
2023/06/03 00:48:07;;;;;;;3.30;0.47;;;13.00;99.90;;;;;;4908242;29;20127;-34
2023/06/03 00:50:34;;;;;;;1.65;0.50;;;13.00;99.90;;;;;;4904587;29;20438;-34
2023/06/03 00:53:02;;;;;;;1.83;0.32;;;13.00;99.90;;;;;;4902504;29;20063;-34
2023/06/03 00:55:28;;;;;;;1.60;0.30;;;12.90;99.90;;;;;;4901903;29;20048;-34
2023/06/03 00:57:54;;;;;;;1.23;0.40;;;12.90;99.90;;;;;;4902970;29;20056;-34
2023/06/03 01:00:20;;;;;;;3.22;0.40;;;12.80;99.90;;;;;;4904277;29;20191;-34
2023/06/03 01:02:46;;;;;;;2.42;0.50;;;12.80;99.90;;;;;;4899898;29;20056;-34
2023/06/03 01:05:14;;;;;;;1.50;0.40;;;12.80;99.90;;;;;;4901001;29;20055;-34
2023/06/03 01:07:46;;;;;;;1.38;0.38;;;12.70;99.90;;;;;;4903464;29;20048;-34
2023/06/03 01:10:50;;;;;;;0.80;0.38;;;12.70;99.90;;;;;;4904072;29;20063;-34
2023/06/03 01:13:39;;;;;;;2.15;0.30;;;12.60;99.90;;;;;;4910368;29;20665;-34
2023/06/03 01:16:08;;;;;;;1.38;0.28;;;12.60;99.90;;;;;;4908010;29;20411;-34
2023/06/03 01:18:36;;;;;;;1.02;0.30;;;12.50;99.90;;;;;;4909115;29;20069;-34
2023/06/03 01:21:03;;;;;;;3.97;0.50;;;12.50;99.90;;;;;;4909833;29;20482;-34
2023/06/03 01:23:33;;;;;;;1.25;0.30;;;12.50;99.90;;;;;;4905471;29;20502;-34
2023/06/03 01:26:04;;;;;;;0.93;0.38;;;12.40;99.90;;;;;;4910556;29;20059;-34
2023/06/03 01:28:31;;;;;;;5.68;0.40;;;12.40;99.90;;;;;;4906304;29;20067;-34
2023/06/03 01:30:58;;;;;;;1.23;0.40;;;12.40;99.90;;;;;;4907027;29;20052;-34
2023/06/03 01:33:25;;;;;;;1.55;0.40;;;12.30;99.90;;;;;;4907862;29;20063;-34
2023/06/03 01:35:53;;;;;;;0.85;0.30;;;12.30;99.90;;;;;;4907113;29;20055;-34
2023/06/03 01:38:21;;;;;;;2.30;0.30;;;12.20;99.90;;;;;;4902732;29;20055;-34
2023/06/03 01:40:47;;;;;;;1.30;0.28;;;12.20;99.90;;;;;;4905437;29;20414;-34
2023/06/03 01:43:13;;;;;;;2.08;0.38;;;12.20;99.90;;;;;;4892770;29;20106;-34
2023/06/03 01:45:39;;;;;;;2.35;0.40;;;12.10;99.90;;;;;;4899320;29;20426;-34
2023/06/03 01:48:05;;;;;;;2.20;0.57;;;12.10;99.90;;;;;;4893562;29;20052;-34
2023/06/03 01:50:30;;;;;;;1.83;0.30;;;12.10;99.90;;;;;;4899387;29;20051;-34
2023/06/03 01:52:56;;;;;;;1.30;0.40;;;12.10;99.90;;;;;;4908987;29;20052;-34
2023/06/03 01:55:22;;;;;;;0.80;0.20;;;12.00;99.90;;;;;;4904626;29;20060;-34
2023/06/03 01:57:47;;;;;;;2.08;0.30;;;12.00;99.90;;;;;;4900528;29;20056;-34
2023/06/03 02:00:15;;;;;;;1.35;0.28;;;11.90;99.90;;;;;;4902328;29;20136;-34
2023/06/03 02:02:40;;;;;;;2.67;0.38;;;11.90;99.90;;;;;;4901291;29;20230;-34
2023/06/03 02:05:07;;;;;;;0.70;0.20;;;11.90;99.90;;;;;;4900025;29;20134;-34
2023/06/03 02:07:32;;;;;;;0.90;0.30;;;11.80;99.90;;;;;;4899112;29;20083;-34
2023/06/03 02:09:59;;;;;;;1.27;0.22;;;11.80;99.90;;;;;;4901756;29;20550;-34
2023/06/03 02:12:24;;;;;;;1.40;0.30;;;11.80;99.90;;;;;;4905099;29;20501;-34
2023/06/03 02:14:55;;;;;;;1.33;0.50;;;11.70;99.90;;;;;;4903937;29;20052;-34
2023/06/03 02:17:24;;;;;;;1.17;0.35;;;11.70;99.90;;;;;;4903262;29;20060;-34
2023/06/03 02:19:50;;;;;;;1.88;0.40;;;11.60;99.90;;;;;;4907761;29;20055;-34
2023/06/03 02:22:20;;;;;;;1.35;0.30;;;11.60;99.90;;;;;;4908248;29;20051;-34
2023/06/03 02:24:46;;;;;;;1.30;0.30;;;11.60;99.90;;;;;;4904891;29;20124;-34
2023/06/03 02:27:14;;;;;;;0.93;0.20;;;11.50;99.90;;;;;;4907182;29;20060;-34
2023/06/03 02:29:42;;;;;;;1.00;0.30;;;11.50;99.90;;;;;;4910529;29;20533;-34
2023/06/03 02:32:08;;;;;;;0.70;0.30;;;11.40;99.90;;;;;;4906442;29;20063;-34
2023/06/03 02:34:33;;;;;;;0.85;0.30;;;11.40;99.90;;;;;;4907711;29;20132;-34
2023/06/03 02:36:59;;;;;;;1.30;0.30;;;11.40;99.90;;;;;;4914989;29;20056;-34
2023/06/03 02:39:25;;;;;;;1.02;0.20;;;11.30;99.90;;;;;;4907891;29;20052;-34
2023/06/03 02:41:51;;;;;;;1.10;0.30;;;11.30;99.90;;;;;;4911493;29;20047;-34
2023/06/03 02:44:17;;;;;;;0.50;0.20;;;11.30;99.90;;;;;;4907019;29;20629;-34
2023/06/03 02:46:44;;;;;;;1.73;0.45;;;11.20;99.90;;;;;;4906336;29;20092;-34
2023/06/03 02:49:10;;;;;;;1.50;0.30;;;11.20;99.90;;;;;;4903158;29;20536;-34
2023/06/03 02:51:41;;;;;;;0.70;0.20;;;11.20;99.90;;;;;;4906150;29;20059;-34
2023/06/03 02:54:07;;;;;;;0.70;0.30;;;11.10;99.90;;;;;;4905208;29;20052;-34
2023/06/03 02:56:33;;;;;;;2.40;0.30;;;11.10;99.90;;;;;;4905996;29;20095;-34
2023/06/03 02:58:59;;;;;;;0.47;0.20;;;11.00;99.90;;;;;;4905421;29;20059;-34
2023/06/03 03:01:27;;;;;;;0.98;0.30;;;11.00;99.90;;;;;;4903507;29;20052;-34
2023/06/03 03:03:53;;;;;;;0.47;0.20;;;11.00;99.90;;;;;;4903885;29;20060;-34
2023/06/03 03:06:21;;;;;;;0.93;0.30;;;11.00;99.90;;;;;;4905379;29;20075;-34
2023/06/03 03:08:48;;;;;;;1.65;0.40;;;10.90;99.90;;;;;;4903397;29;20517;-34
2023/06/03 03:11:14;;;;;;;0.77;0.30;;;10.90;99.90;;;;;;4907344;29;20071;-34
2023/06/03 03:13:41;;;;;;;1.08;0.30;;;10.90;99.90;;;;;;4903534;29;20412;-34
2023/06/03 03:16:08;;;;;;;1.08;0.25;;;10.80;99.90;;;;;;4906676;29;20051;-34
2023/06/03 03:18:33;;;;;;;2.83;0.32;;;10.80;99.90;;;;;;4911032;29;20048;-34
2023/06/03 03:20:59;;;;;;;1.23;0.40;;;10.70;99.90;;;;;;4910849;29;20044;-34
2023/06/03 03:23:28;;;;;;;1.17;0.30;;;10.70;99.90;;;;;;4904800;29;20072;-34
2023/06/03 03:25:55;;;;;;;2.55;0.40;;;10.70;99.90;;;;;;4894711;29;20071;-34
2023/06/03 03:28:20;;;;;;;0.82;0.20;;;10.70;99.90;;;;;;4907257;29;20060;-34
2023/06/03 03:30:49;;;;;;;0.80;0.38;;;10.70;99.90;;;;;;4908394;29;20048;-34
2023/06/03 03:33:15;;;;;;;1.10;0.30;;;10.70;99.90;;;;;;4909467;29;20052;-34
2023/06/03 03:35:43;;;;;;;3.65;0.30;;;10.70;99.90;;;;;;4906326;29;20108;-34
2023/06/03 03:38:09;;;;;;;3.08;0.40;;;10.70;99.90;;;;;;4911547;29;20696;-34
2023/06/03 03:40:38;;;;;;;1.17;0.40;;;10.70;99.90;;;;;;4914700;29;20040;-34
2023/06/03 03:43:04;;;;;;;3.70;0.30;;;10.60;99.90;;;;;;4909625;29;21562;-34
2023/06/03 03:45:34;;;;;;;1.60;0.40;;;10.70;99.90;;;;;;4895750;29;20482;-34
2023/06/03 03:48:03;;;;;;;1.58;0.30;;;10.60;99.90;;;;;;4907660;29;20414;-34
2023/06/03 03:50:39;;;;;;;0.93;0.30;;;10.60;99.90;;;;;;4914952;29;20107;-34
2023/06/03 03:53:08;;;;;;;2.90;0.43;;;10.60;99.90;;;;;;4910227;29;20056;-34
2023/06/03 03:55:42;;;;;;;2.45;0.52;;;10.60;99.90;;;;;;4899896;29;20062;-34
2023/06/03 03:58:28;;;;;;;2.80;0.28;;;10.60;99.90;;;;;;4903349;29;20127;-34
2023/06/03 04:01:09;;;;;;;0.73;0.30;;;10.60;99.90;;;;;;4907897;29;20048;-34
2023/06/03 04:03:40;;;;;;;2.05;0.40;;;10.60;99.90;;;;;;4903274;29;20060;-34
2023/06/03 04:06:06;;;;;;;1.30;0.30;;;10.60;99.90;;;;;;4906264;29;20079;-34
2023/06/03 04:08:39;;;;;;;0.85;0.32;;;10.60;99.90;;;;;;4907974;29;20052;-34
2023/06/03 04:11:07;;;;;;;1.25;0.30;;;10.70;99.90;;;;;;4906449;29;20173;-34
2023/06/03 04:13:38;;;;;;;0.80;0.25;;;10.70;99.90;;;;;;4908790;29;20056;-34
2023/06/03 04:16:11;;;;;;;2.83;0.60;;;10.70;99.90;;;;;;4895878;29;20111;-34
2023/06/03 04:18:43;;;;;;;0.93;0.30;;;10.70;99.90;;;;;;4908769;29;20467;-34
2023/06/03 04:21:19;;;;;;;0.77;0.30;;;10.70;99.90;;;;;;4909613;29;20048;-34
2023/06/03 04:23:45;;;;;;;0.55;0.30;;;10.70;99.90;;;;;;4906771;29;20052;-34
2023/06/03 04:26:14;;;;;;;0.73;0.20;;;10.80;99.90;;;;;;4908990;29;20047;-34
2023/06/03 04:28:40;;;;;;;0.90;0.30;;;10.80;99.90;;;;;;4907637;29;20069;-34
2023/06/03 04:31:06;;;;;;;1.23;0.30;;;10.90;99.90;;;;;;4908217;29;20056;-34
2023/06/03 04:33:32;;;;;;;0.70;0.30;;;10.80;99.90;;;;;;4904064;29;20072;-34
2023/06/03 04:35:58;;;;;;;0.93;0.43;;;10.90;99.90;;;;;;4904331;29;20422;-34
2023/06/03 04:38:23;;;;;;;2.33;0.30;;;10.90;99.90;;;;;;4908261;29;20076;-34
2023/06/03 04:40:49;;;;;;;0.38;0.20;;;11.00;99.90;;;;;;4902139;29;20090;-34
2023/06/03 04:43:18;;;;;;;1.40;0.40;;;11.00;99.90;;;;;;4904545;29;20048;-34
2023/06/03 04:45:45;;;;;;;0.77;0.20;;;11.10;99.90;;;;;;4905652;29;20063;-34
2023/06/03 04:48:13;;;;;;;1.13;0.30;;;11.10;99.90;;;;;;4903094;29;20126;-34
2023/06/03 04:50:43;;;;;;;2.33;0.30;;;11.10;99.90;;;;;;4902073;29;20426;-34
2023/06/03 04:53:12;;;;;;;2.03;0.30;;;11.20;99.90;;;;;;4903484;29;20060;-34
2023/06/03 04:55:43;;;;;;;0.95;0.30;;;11.20;99.90;;;;;;4902747;29;20060;-34
2023/06/03 04:58:10;;;;;;;1.30;0.30;;;11.30;99.90;;;;;;4900080;29;20060;-34
2023/06/03 05:00:36;;;;;;;1.48;0.30;;;11.30;99.90;;;;;;4903195;29;20067;-34
2023/06/03 05:03:08;;;;;;;1.08;0.30;;;11.30;99.90;;;;;;4904657;29;20067;-34
2023/06/03 05:05:38;;;;;;;0.93;0.30;;;11.40;99.90;;;;;;4903212;29;20627;-34
2023/06/03 05:08:03;;;;;;;0.80;0.30;;;11.50;99.90;;;;;;4903723;29;20052;-34
2023/06/03 05:10:29;;;;;;;1.20;0.35;;;11.50;99.90;;;;;;4904131;29;20060;-34
2023/06/03 05:12:57;;;;;;;1.13;0.30;;;11.60;99.90;;;;;;4900767;29;20668;-34
2023/06/03 05:15:22;;;;;;;2.78;0.40;;;11.70;99.90;;;;;;4902196;29;20075;-34
2023/06/03 05:17:48;;;;;;;1.13;0.40;;;11.70;99.90;;;;;;4905206;29;20083;-35
2023/06/03 05:20:13;;;;;;;3.95;0.40;;;11.70;99.90;;;;;;4904405;29;20063;-34
2023/06/03 05:22:39;;;;;;;4.72;0.63;;;11.80;99.90;;;;;;4906372;29;20055;-34
2023/06/03 05:25:06;;;;;;;1.02;0.30;;;11.80;99.90;;;;;;4908874;29;20491;-34
2023/06/03 05:27:32;;;;;;;1.58;0.70;;;11.90;99.90;;;;;;4908866;29;20055;-34
2023/06/03 05:29:58;;;;;;;1.42;0.90;;;12.00;99.90;;;;;;4909128;29;20405;-35
2023/06/03 05:32:23;;;;;;;1.33;0.40;;;12.10;99.90;;;;;;4907194;29;20091;-34
2023/06/03 05:34:49;;;;;;;1.45;0.50;;;12.20;99.90;;;;;;4911283;29;20509;-34
2023/06/03 05:37:15;;;;;;;1.08;0.32;;;12.20;99.90;;;;;;4906531;29;20056;-34
2023/06/03 05:39:41;;;;;;;1.25;0.40;;;12.30;99.90;;;;;;4907675;29;20075;-34
2023/06/03 05:42:06;;;;;;;2.28;0.32;;;12.40;99.90;;;;;;4908415;29;20048;-34
2023/06/03 05:44:32;;;;;;;0.90;0.30;;;12.50;99.90;;;;;;4900630;29;20473;-34
2023/06/03 05:46:58;;;;;;;3.17;0.45;;;12.50;99.90;;;;;;4906670;29;20518;-34
2023/06/03 05:49:23;;;;;;;1.15;0.35;;;12.60;99.90;;;;;;4904297;29;20465;-34
2023/06/03 05:51:50;;;;;;;0.90;0.30;;;12.70;99.90;;;;;;4907972;29;20465;-34
2023/06/03 05:54:15;;;;;;;1.20;0.38;;;12.80;99.90;;;;;;4905993;29;20044;-34
2023/06/03 05:56:41;;;;;;;1.30;0.43;;;12.90;99.90;;;;;;4910521;29;20395;-34
2023/06/03 05:59:06;;;;;;;2.30;0.30;;;13.00;99.90;;;;;;4903494;29;20398;-34
2023/06/03 06:01:35;;;;;;;1.52;0.50;;;13.00;99.90;;;;;;4905776;29;20075;-34
2023/06/03 06:04:01;;;;;;;1.63;0.43;;;13.10;99.90;;;;;;4905913;29;20056;-34
2023/06/03 06:06:27;;;;;;;1.23;0.40;;;13.20;99.90;;;;;;4910882;29;20048;-34
2023/06/03 06:08:52;;;;;;;1.23;0.32;;;13.30;99.90;;;;;;4906633;29;20055;-34
2023/06/03 06:11:18;;;;;;;2.60;0.40;;;13.40;99.90;;;;;;4904751;29;20075;-34
2023/06/03 06:13:44;;;;;;;1.63;0.32;;;13.50;99.90;;;;;;4905597;29;20131;-34
2023/06/03 06:16:10;;;;;;;2.38;0.50;;;13.60;99.90;;;;;;4907685;29;20081;-34
2023/06/03 06:18:35;;;;;;;1.23;0.30;;;13.70;99.90;;;;;;4907508;29;20051;-34
2023/06/03 06:21:01;;;;;;;1.38;0.47;;;13.80;99.90;;;;;;4903647;29;20048;-34
2023/06/03 06:23:27;;;;;;;2.83;0.40;;;13.90;99.90;;;;;;4902118;29;20060;-34
2023/06/03 06:25:54;;;;;;;3.30;0.50;;;14.00;99.90;;;;;;4902652;29;20075;-34
2023/06/03 06:28:28;;;;;;;1.20;0.40;;;14.10;99.90;;;;;;4906016;29;20048;-34
2023/06/03 06:30:55;;;;;;;3.83;0.90;;;14.20;99.90;;;;;;4909529;29;20054;-34
2023/06/03 06:33:21;;;;;;;2.10;0.40;;;14.20;99.90;;;;;;4916822;29;20071;-34
2023/06/03 06:35:47;;;;;;;2.17;0.40;;;14.40;99.90;;;;;;4908274;29;20056;-34
2023/06/03 06:38:13;;;;;;;1.10;0.22;;;14.50;99.90;;;;;;4905594;29;20055;-34
2023/06/03 06:40:40;;;;;;;2.97;0.50;;;14.60;99.90;;;;;;4904082;29;20573;-34
2023/06/03 06:43:12;;;;;;;5.90;0.40;;;14.70;99.90;;;;;;4909332;29;20419;-34
2023/06/03 06:45:38;;;;;;;0.70;0.30;;;14.80;99.90;;;;;;4915659;29;20137;-34
2023/06/03 06:48:08;;;;;;;0.90;0.30;;;14.90;99.90;;;;;;4908772;29;20553;-34
2023/06/03 06:50:42;;;;;;;3.50;0.40;;;15.10;99.90;;;;;;4902212;29;20091;-34
2023/06/03 06:53:08;;;;;;;1.23;0.40;;;15.10;99.90;;;;;;4905351;29;20056;-35
2023/06/03 06:55:35;;;;;;;0.90;0.40;;;15.20;99.90;;;;;;4903120;29;20062;-34
2023/06/03 06:58:01;;;;;;;2.25;0.30;;;15.30;99.90;;;;;;4900311;29;20052;-34
2023/06/03 07:00:28;;;;;;;0.65;0.22;;;15.40;99.90;;;;;;4902657;29;20056;-35
2023/06/03 07:02:55;;;;;;;0.77;0.35;;;15.50;99.90;;;;;;4902607;29;20502;-34
2023/06/03 07:05:20;;;;;;;2.80;0.40;;;15.60;99.90;;;;;;4903503;29;20062;-35
2023/06/03 07:07:48;;;;;;;0.70;0.20;;;15.70;99.90;;;;;;4907252;29;20048;-35
2023/06/03 07:10:20;;;;;;;0.55;0.30;;;15.90;99.90;;;;;;4902381;29;20537;-34
2023/06/03 07:12:46;;;;;;;1.65;0.30;;;16.00;99.90;;;;;;4905722;29;20650;-35
2023/06/03 07:15:12;;;;;;;0.60;0.20;;;16.10;99.90;;;;;;4904543;29;20557;-34
2023/06/03 07:17:40;;;;;;;1.80;0.45;;;16.20;99.90;;;;;;4903575;29;21280;-35
2023/06/03 07:20:06;;;;;;;1.20;0.30;;;16.20;99.90;;;;;;4908313;29;20060;-34
2023/06/03 07:22:32;;;;;;;1.13;0.30;;;16.40;99.90;;;;;;4908732;29;20472;-34
2023/06/03 07:24:58;;;;;;;2.15;0.50;;;16.50;99.90;;;;;;4912506;29;20056;-34
2023/06/03 07:27:31;;;;;;;3.60;0.40;;;16.60;99.90;;;;;;4913925;29;20064;-35
2023/06/03 07:29:58;;;;;;;1.20;0.30;;;16.70;99.90;;;;;;4906918;29;20079;-34
2023/06/03 07:32:25;;;;;;;2.45;0.32;;;16.70;99.90;;;;;;4910183;29;20048;-35
2023/06/03 07:34:51;;;;;;;1.75;0.30;;;16.80;99.90;;;;;;4901338;29;20084;-35
2023/06/03 07:37:17;;;;;;;0.68;0.30;;;16.90;99.90;;;;;;4906904;29;20111;-35
2023/06/03 07:39:43;;;;;;;1.05;0.22;;;16.90;99.90;;;;;;4906477;29;20475;-35
2023/06/03 07:42:19;;;;;;;2.47;0.35;;;17.00;99.90;;;;;;4907224;29;20051;-35
2023/06/03 07:44:47;;;;;;;2.58;0.30;;;17.10;99.90;;;;;;4912126;29;20071;-34
2023/06/03 07:47:15;;;;;;;0.75;0.22;;;17.10;99.90;;;;;;4909897;29;20075;-34
2023/06/03 07:49:45;;;;;;;1.85;0.40;;;17.20;99.90;;;;;;4903959;29;20506;-35
2023/06/03 07:52:19;;;;;;;1.65;0.80;;;17.30;99.90;;;;;;4904480;29;20048;-35
2023/06/03 07:54:46;;;;;;;1.38;0.35;;;17.40;99.90;;;;;;4902683;29;20107;-36
2023/06/03 07:57:15;;;;;;;2.05;0.85;;;17.60;99.90;;;;;;4908191;29;20581;-36
2023/06/03 08:00:07;;;;;;;1.17;0.40;;;17.70;99.90;;;;;;4908986;29;20080;-36
2023/06/03 08:02:37;;;;;;;2.50;0.35;;;17.70;99.90;;;;;;4902655;29;20486;-36
2023/06/03 08:05:04;;;;;;;1.27;0.20;;;17.70;99.90;;;;;;4909117;29;20052;-36
2023/06/03 08:07:30;;;;;;;2.40;0.63;;;17.80;99.90;;;;;;4908988;29;20478;-35
2023/06/03 08:09:56;;;;;;;2.08;0.30;;;17.80;99.90;;;;;;4905154;29;20059;-36
2023/06/03 08:12:31;;;;;;;1.17;0.30;;;18.00;99.90;;;;;;4911452;29;20056;-36
2023/06/03 08:14:56;;;;;;;0.73;0.38;;;18.20;99.90;;;;;;4904841;29;20087;-36
2023/06/03 08:17:40;;;;;;;3.28;0.30;;;18.30;99.90;;;;;;4908476;29;20097;-36
2023/06/03 08:20:09;;;;;;;0.75;0.40;;;18.40;99.90;;;;;;4905524;29;20438;-36
2023/06/03 08:22:44;;;;;;;1.02;0.22;;;18.40;99.90;;;;;;4902840;29;20167;-36
2023/06/03 08:25:11;;;;;;;1.02;0.30;;;18.30;99.90;;;;;;4899748;29;20144;-36
2023/06/03 08:27:37;;;;;;;1.55;0.40;;;18.20;99.90;;;;;;4907698;29;20078;-36
2023/06/03 08:30:03;;;;;;;0.93;0.40;;;18.20;99.90;;;;;;4907727;29;20052;-36
2023/06/03 08:32:33;;;;;;;1.67;0.25;;;18.20;99.90;;;;;;4908822;29;20052;-36
2023/06/03 08:34:59;;;;;;;1.80;0.20;;;18.30;99.90;;;;;;4905677;29;20525;-36
2023/06/03 08:37:25;;;;;;;2.00;0.30;;;18.30;99.90;;;;;;4903915;29;20048;-36
2023/06/03 08:39:52;;;;;;;2.25;0.30;;;18.50;99.90;;;;;;4908083;29;20083;-36
2023/06/03 08:42:23;;;;;;;2.95;0.52;;;18.70;99.90;;;;;;4906768;29;20688;-36
2023/06/03 08:45:02;;;;;;;2.13;0.30;;;18.90;99.90;;;;;;4905488;29;20426;-34
2023/06/03 08:47:39;;;;;;;1.95;0.30;;;19.00;99.90;;;;;;4903835;29;20506;-36
2023/06/03 08:50:12;;;;;;;2.25;0.30;;;18.90;99.90;;;;;;4908705;29;20689;-35
2023/06/03 08:52:39;;;;;;;1.45;0.40;;;18.70;99.90;;;;;;4904856;29;20060;-36
2023/06/03 08:55:06;;;;;;;1.50;0.20;;;18.40;99.90;;;;;;4905634;29;20051;-36
2023/06/03 08:57:34;;;;;;;1.15;0.20;;;18.10;99.90;;;;;;4905455;29;21263;-36
2023/06/03 09:00:01;;;;;;;3.55;0.52;;;17.90;99.90;;;;;;4900110;29;20498;-36
2023/06/03 09:02:29;;;;;;;0.65;0.30;;;17.70;99.90;;;;;;4905420;29;20056;-36
2023/06/03 09:04:56;;;;;;;1.00;0.25;;;17.50;99.90;;;;;;4899158;29;20071;-35
2023/06/03 09:07:23;;;;;;;1.98;0.30;;;17.50;99.90;;;;;;4894608;29;20071;-36
2023/06/03 09:09:53;;;;;;;1.00;0.30;;;17.40;99.90;;;;;;4902036;29;20048;-36
2023/06/03 09:12:19;;;;;;;1.75;0.20;;;17.50;99.90;;;;;;4906451;29;20062;-36
2023/06/03 09:14:47;;;;;;;1.17;0.30;;;17.60;99.90;;;;;;4903164;29;20056;-36
2023/06/03 09:17:13;;;;;;;0.50;0.20;;;17.90;99.90;;;;;;4901259;29;20060;-36
2023/06/03 09:19:39;;;;;;;1.10;0.30;;;18.10;99.90;;;;;;4907853;29;20135;-36
2023/06/03 09:22:06;;;;;;;0.70;0.32;;;18.40;99.90;;;;;;4904580;29;20052;-36
2023/06/03 09:24:32;;;;;;;0.47;0.30;;;18.70;99.90;;;;;;4903312;29;20063;-36
2023/06/03 09:26:57;;;;;;;1.13;0.38;;;19.00;99.90;;;;;;4899083;29;20094;-35
2023/06/03 09:29:23;;;;;;;0.90;0.22;;;19.20;99.90;;;;;;4907557;29;20060;-36
2023/06/03 09:31:49;;;;;;;0.77;0.22;;;19.40;99.90;;;;;;4907308;29;20059;-36
2023/06/03 09:34:16;;;;;;;0.60;0.30;;;19.60;99.90;;;;;;4905283;29;20048;-36
2023/06/03 09:36:46;;;;;;;0.52;0.30;;;19.70;99.90;;;;;;4889428;29;20044;-36
2023/06/03 09:39:16;;;;;;;1.42;0.20;;;19.80;99.90;;;;;;4895261;29;20480;-36
2023/06/03 09:41:42;;;;;;;0.70;0.30;;;19.90;99.90;;;;;;4906538;29;20518;-36
2023/06/03 09:44:10;;;;;;;0.95;0.20;;;20.00;99.90;;;;;;4901118;29;20070;-36
2023/06/03 09:46:36;;;;;;;0.60;0.20;;;20.10;99.90;;;;;;4899289;29;20885;-36
2023/06/03 09:49:19;;;;;;;1.85;0.20;;;20.20;99.90;;;;;;4897011;29;20271;-36
2023/06/03 09:51:47;;;;;;;3.50;0.40;;;20.30;99.90;;;;;;4899283;29;20081;-36
2023/06/03 09:54:17;;;;;;;0.73;0.30;;;20.40;99.90;;;;;;4903451;29;20056;-36
2023/06/03 09:56:45;;;;;;;1.35;0.17;;;20.50;99.90;;;;;;4902961;29;20418;-36
2023/06/03 09:59:19;;;;;;;0.77;0.20;;;20.50;99.90;;;;;;4907085;29;20554;-35
2023/06/03 10:01:48;;;;;;;0.47;0.20;;;20.60;99.90;;;;;;4903730;29;20048;-35
2023/06/03 10:04:20;;;;;;;0.65;0.20;;;20.60;99.90;;;;;;4912104;29;21603;-35
2023/06/03 10:06:47;;;;;;;0.28;0.20;;;20.70;99.90;;;;;;4899803;29;20123;-35
2023/06/03 10:09:20;;;;;;;1.10;0.30;;;20.80;99.90;;;;;;4895786;29;20522;-34
2023/06/03 10:11:50;;;;;;;0.68;0.20;;;20.90;99.90;;;;;;4898045;29;20384;-34
2023/06/03 10:14:21;;;;;;;2.67;0.40;;;20.90;99.90;;;;;;4900784;29;20060;-34
2023/06/03 10:17:08;;;;;;;1.85;0.30;;;21.00;99.90;;;;;;4905378;29;20138;-35
2023/06/03 10:19:35;;;;;;;2.05;0.32;;;21.00;99.90;;;;;;4900082;29;20048;-34
2023/06/03 10:22:02;;;;;;;3.78;0.50;;;21.10;99.90;;;;;;4909195;29;20131;-34
2023/06/03 10:24:30;;;;;;;1.08;0.25;;;21.10;99.90;;;;;;4899503;29;20048;-35
2023/06/03 10:26:56;;;;;;;1.92;0.30;;;21.20;99.90;;;;;;4904349;29;20055;-35
2023/06/03 10:29:23;;;;;;;2.50;0.30;;;21.40;99.90;;;;;;4909289;29;20131;-34
2023/06/03 10:31:53;;;;;;;1.67;0.30;;;21.50;99.90;;;;;;4902243;29;20048;-35
2023/06/03 10:34:19;;;;;;;1.02;0.30;;;21.50;99.90;;;;;;4898377;29;20056;-34
2023/06/03 10:36:55;;;;;;;1.20;0.30;;;21.60;99.90;;;;;;4887012;29;20044;-34
2023/06/03 10:39:24;;;;;;;1.05;0.35;;;21.60;99.90;;;;;;4907177;29;20145;-34
2023/06/03 10:41:51;;;;;;;0.82;0.20;;;21.70;99.90;;;;;;4907901;29;20067;-34
2023/06/03 10:44:19;;;;;;;2.33;0.73;;;21.70;99.90;;;;;;4903607;29;20894;-35
2023/06/03 10:47:00;;;;;;;0.93;0.40;;;21.90;99.90;;;;;;4902476;29;20044;-35
2023/06/03 10:49:30;;;;;;;3.58;0.32;;;22.10;99.90;;;;;;4905392;29;20052;-35
2023/06/03 10:52:08;;;;;;;1.23;0.32;;;22.30;99.90;;;;;;4910666;29;20048;-35
2023/06/03 10:54:52;;;;;;;0.55;0.28;;;22.40;99.90;;;;;;4905133;29;20060;-35
2023/06/03 10:57:21;;;;;;;1.50;0.30;;;22.40;99.90;;;;;;4909465;29;20051;-35
2023/06/03 10:59:47;;;;;;;1.02;0.35;;;22.40;99.90;;;;;;4911170;29;20055;-35
2023/06/03 11:02:14;;;;;;;1.23;0.30;;;22.40;99.90;;;;;;4906854;29;20044;-35
2023/06/03 11:04:40;;;;;;;1.42;0.30;;;22.50;99.90;;;;;;4908944;29;20067;-35
2023/06/03 11:07:33;;;;;;;0.98;0.38;;;22.50;99.90;;;;;;4909682;29;20586;-35
2023/06/03 11:09:59;;;;;;;;;;;22.60;99.90;;;;;;4905891;29;20498;-35
2023/06/03 11:12:47;;;;;;;1.15;0.25;;;22.70;99.90;;;;;;4909478;29;20385;-35
2023/06/03 11:15:13;;;;;;;2.20;0.30;;;22.80;99.90;;;;;;4906198;29;20063;-35
2023/06/03 11:17:41;;;;;;;1.95;0.30;;;22.70;99.90;;;;;;4905150;29;20043;-35
2023/06/03 11:20:08;;;;;;;1.13;0.63;;;22.80;99.90;;;;;;4901910;29;20056;-35
2023/06/03 11:22:36;;;;;;;0.50;0.20;;;22.90;99.90;;;;;;4907380;29;20564;-34
2023/06/03 11:25:02;;;;;;;0.70;0.30;;;22.90;99.90;;;;;;4909537;29;20085;-34
2023/06/03 11:27:29;;;;;;;0.85;0.30;;;22.90;99.90;;;;;;4906104;29;20432;-34
2023/06/03 11:29:59;;;;;;;0.88;0.30;;;23.00;99.90;;;;;;4912364;29;20051;-35
2023/06/03 11:32:30;;;;;;;1.38;0.40;;;23.10;99.90;;;;;;4911508;29;20059;-35
2023/06/03 11:35:04;;;;;;;1.15;0.35;;;23.00;99.90;;;;;;4907029;29;20495;-34
2023/06/03 11:37:48;;;;;;;2.28;0.30;;;22.90;99.90;;;;;;4904705;29;20059;-35
2023/06/03 11:40:18;;;;;;;2.35;0.30;;;22.90;99.90;;;;;;4908604;29;20087;-36
2023/06/03 11:42:50;;;;;;;1.60;0.47;;;23.00;99.90;;;;;;4906512;29;20139;-35
2023/06/03 11:45:24;;;;;;;0.85;0.30;;;23.20;99.90;;;;;;4908414;29;20063;-35
2023/06/03 11:47:59;;;;;;;0.88;0.40;;;23.30;99.90;;;;;;4907490;29;20064;-35
2023/06/03 11:50:33;;;;;;;1.92;0.30;;;23.40;99.90;;;;;;4914849;29;20098;-35
2023/06/03 11:53:00;;;;;;;1.05;0.30;;;23.50;99.90;;;;;;4910850;29;20052;-35
2023/06/03 11:55:32;;;;;;;0.68;0.30;;;23.60;99.90;;;;;;4902751;29;20063;-35
2023/06/03 11:58:11;;;;;;;2.15;0.40;;;23.60;99.90;;;;;;4908508;29;20056;-35
2023/06/03 12:00:37;;;;;;;9.18;0.40;;;23.70;99.90;;;;;;4914541;29;20585;-36
2023/06/03 12:03:04;;;;;;;1.05;0.30;;;23.80;99.90;;;;;;4910927;29;20608;-35
2023/06/03 12:05:29;;;;;;;0.40;0.20;;;23.80;99.90;;;;;;4909856;29;20090;-35
2023/06/03 12:08:00;;;;;;;3.83;0.40;;;23.80;99.90;;;;;;4906205;29;20134;-35
2023/06/03 12:10:39;;;;;;;1.45;0.45;;;23.80;99.90;;;;;;4910298;29;20056;-36
2023/06/03 12:13:05;;;;;;;1.75;0.30;;;23.80;99.90;;;;;;4909938;29;20063;-35
2023/06/03 12:15:30;;;;;;;2.75;0.60;;;23.80;99.90;;;;;;4906340;29;20088;-35
2023/06/03 12:18:03;;;;;;;1.73;0.50;;;23.80;99.90;;;;;;4904348;29;20056;-35
2023/06/03 12:20:29;;;;;;;1.13;0.30;;;23.90;99.90;;;;;;4903329;29;20555;-35
2023/06/03 12:23:13;;;;;;;4.88;0.50;;;24.00;99.90;;;;;;4904079;29;20087;-35
2023/06/03 12:25:39;;;;;;;0.77;0.30;;;23.90;99.90;;;;;;4908382;29;20063;-35
2023/06/03 12:28:24;;;;;;;0.70;0.30;;;23.90;99.90;;;;;;4910013;29;21157;-35
2023/06/03 12:30:50;;;;;;;1.77;0.50;;;24.00;99.90;;;;;;4908195;29;20064;-35
2023/06/03 12:33:17;;;;;;;1.02;0.38;;;24.10;99.90;;;;;;4892203;29;20437;-35
2023/06/03 12:35:54;;;;;;;1.92;0.40;;;24.30;99.90;;;;;;4904707;29;20118;-35
2023/06/03 12:38:21;;;;;;;2.65;0.40;;;24.40;99.90;;;;;;4909108;29;20099;-35
2023/06/03 12:40:47;;;;;;;1.23;0.40;;;24.40;99.90;;;;;;4904909;29;20055;-35
2023/06/03 12:43:20;;;;;;;1.30;0.35;;;24.40;99.90;;;;;;4909031;29;20064;-35
2023/06/03 12:45:47;;;;;;;3.10;0.63;;;24.40;99.90;;;;;;4909643;29;20048;-35
2023/06/03 12:48:30;;;;;;;1.27;0.60;;;24.40;99.90;;;;;;4906901;29;20746;-36
2023/06/03 12:50:56;;;;;;;1.17;0.47;;;24.50;99.90;;;;;;4905988;29;20155;-35
2023/06/03 12:53:22;;;;;;;2.72;0.40;;;24.50;99.90;;;;;;4907987;29;20056;-35
2023/06/03 12:55:47;;;;;;;0.98;0.32;;;24.60;99.90;;;;;;4898108;29;20087;-35